Time;durP1;ratioP1;P1;durP2;ratioP2;P2;SDS_P1;SDS_P2;PMS_P1;PMS_P2;Temp;Humidity;BMP_temperature;BMP_pressure;BME280_temperature;BME280_humidity;BME280_pressure;Samples;Min_cycle;Max_cycle;Signal;HPM_P1;HPM_P2
2022/04/11 00:00:11;;;;;;;4.10;2.55;;;;;;;;;;6160648;23;20024;-91
2022/04/11 00:02:37;;;;;;;4.00;2.30;;;;;;;;;;6137422;23;20017;-86
2022/04/11 00:05:03;;;;;;;5.50;2.55;;;;;;;;;;6161754;23;20393;-90
2022/04/11 00:07:30;;;;;;;12.48;3.30;;;;;;;;;;6162103;23;20068;-89
2022/04/11 00:09:56;;;;;;;4.95;2.45;;;;;;;;;;6162210;23;20029;-90
2022/04/11 00:12:22;;;;;;;2.95;2.33;;;;;;;;;;6137902;23;20013;-89
2022/04/11 00:14:48;;;;;;;10.98;3.17;;;;;;;;;;6161894;23;20083;-90
2022/04/11 00:17:14;;;;;;;4.22;2.15;;;;;;;;;;6162172;23;20409;-90
2022/04/11 00:19:40;;;;;;;6.10;2.63;;;;;;;;;;6137889;23;20017;-91
2022/04/11 00:22:06;;;;;;;6.10;3.35;;;;;;;;;;6161849;23;20312;-87
2022/04/11 00:24:32;;;;;;;6.38;2.65;;;;;;;;;;6161655;23;20017;-90
2022/04/11 00:26:58;;;;;;;3.55;2.63;;;;;;;;;;6137561;23;20067;-89
2022/04/11 00:29:24;;;;;;;3.63;2.70;;;;;;;;;;6161406;23;20017;-90
2022/04/11 00:31:50;;;;;;;5.40;2.30;;;;;;;;;;6136689;23;20021;-90
2022/04/11 00:34:16;;;;;;;4.25;2.63;;;;;;;;;;6162415;23;20021;-87
2022/04/11 00:36:42;;;;;;;4.47;3.28;;;;;;;;;;6138430;23;20092;-89
2022/04/11 00:39:08;;;;;;;8.60;2.80;;;;;;;;;;6161757;23;20024;-87
2022/04/11 00:41:34;;;;;;;4.32;2.47;;;;;;;;;;6135674;23;20075;-89
2022/04/11 00:44:00;;;;;;;8.05;2.70;;;;;;;;;;6136733;23;20017;-89
2022/04/11 00:46:26;;;;;;;6.70;2.80;;;;;;;;;;6136218;23;20125;-89
2022/04/11 00:48:52;;;;;;;5.32;2.58;;;;;;;;;;6161138;23;20454;-89
2022/04/11 00:51:21;;;;;;;6.32;2.85;;;;;;;;;;6135739;23;20051;-86
2022/04/11 00:53:48;;;;;;;5.75;2.67;;;;;;;;;;6160384;23;20024;-87
2022/04/11 00:56:14;;;;;;;3.22;2.85;;;;;;;;;;6160387;23;20450;-86
2022/04/11 00:58:41;;;;;;;4.55;2.97;;;;;;;;;;6135275;23;20017;-89
2022/04/11 01:01:07;;;;;;;3.75;2.97;;;;;;;;;;6135842;23;20017;-86
2022/04/11 01:03:33;;;;;;;4.40;3.17;;;;;;;;;;6160396;23;20386;-85
2022/04/11 01:06:00;;;;;;;3.67;3.20;;;;;;;;;;6160278;23;20462;-90
2022/04/11 01:08:26;;;;;;;3.83;3.30;;;;;;;;;;6160582;23;20052;-85
2022/04/11 01:10:53;;;;;;;5.53;3.28;;;;;;;;;;6159923;23;20013;-87
2022/04/11 01:13:19;;;;;;;7.10;3.83;;;;;;;;;;6159473;23;20021;-87
2022/04/11 01:15:54;;;;;;;7.32;3.30;;;;;;;;;;6135540;23;20017;-89
2022/04/11 01:18:20;;;;;;;6.53;3.88;;;;;;;;;;6159139;23;20067;-87
2022/04/11 01:20:46;;;;;;;4.95;3.60;;;;;;;;;;6135246;23;20079;-88
2022/04/11 01:23:12;;;;;;;5.38;3.10;;;;;;;;;;6135595;23;20013;-90
2022/04/11 01:25:39;;;;;;;5.65;3.42;;;;;;;;;;6135454;23;20083;-85
2022/04/11 01:28:05;;;;;;;3.28;2.97;;;;;;;;;;6134574;23;20056;-88
2022/04/11 01:30:31;;;;;;;3.72;3.08;;;;;;;;;;6134994;23;20021;-85
2022/04/11 01:32:57;;;;;;;5.45;3.63;;;;;;;;;;6134687;23;20017;-84
2022/04/11 01:35:24;;;;;;;4.40;3.40;;;;;;;;;;6134709;23;20454;-88
2022/04/11 01:37:50;;;;;;;3.47;3.08;;;;;;;;;;6134641;23;20378;-85
2022/04/11 01:40:16;;;;;;;5.55;3.60;;;;;;;;;;6159056;23;20021;-89
2022/04/11 01:42:45;;;;;;;4.00;3.20;;;;;;;;;;6135116;23;20017;-87
2022/04/11 01:45:12;;;;;;;5.25;3.70;;;;;;;;;;6159545;23;20021;-88
2022/04/11 01:47:41;;;;;;;4.28;3.00;;;;;;;;;;6134360;23;20045;-88
2022/04/11 01:50:08;;;;;;;3.35;2.88;;;;;;;;;;6159044;23;20021;-86
2022/04/11 01:52:35;;;;;;;6.38;2.97;;;;;;;;;;6135272;23;20021;-87
2022/04/11 01:55:02;;;;;;;5.22;2.90;;;;;;;;;;6135261;23;20088;-90
2022/04/11 01:57:28;;;;;;;2.63;2.22;;;;;;;;;;6159991;23;20017;-84
2022/04/11 01:59:54;;;;;;;4.38;2.25;;;;;;;;;;6161492;23;20017;-91
2022/04/11 02:02:20;;;;;;;3.80;2.75;;;;;;;;;;6138566;23;20020;-91
2022/04/11 02:04:46;;;;;;;4.22;2.85;;;;;;;;;;6160992;23;20017;-89
2022/04/11 02:07:12;;;;;;;4.85;3.40;;;;;;;;;;6136289;23;20020;-90
2022/04/11 02:09:38;;;;;;;4.05;2.80;;;;;;;;;;6160135;23;20017;-91
2022/04/11 02:12:04;;;;;;;6.80;2.72;;;;;;;;;;6160819;23;20021;-90
2022/04/11 02:14:30;;;;;;;4.60;3.30;;;;;;;;;;6135815;23;20071;-89
2022/04/11 02:16:57;;;;;;;3.47;2.65;;;;;;;;;;6136295;23;20037;-89
2022/04/11 02:19:23;;;;;;;4.80;3.63;;;;;;;;;;6135949;23;20025;-89
2022/04/11 02:21:49;;;;;;;5.72;3.20;;;;;;;;;;6162059;23;20025;-89
2022/04/11 02:24:15;;;;;;;4.07;3.30;;;;;;;;;;6137586;23;20017;-91
2022/04/11 02:26:41;;;;;;;6.32;3.65;;;;;;;;;;6163362;23;20035;-89
2022/04/11 02:29:07;;;;;;;6.50;3.05;;;;;;;;;;6189451;23;20021;-90
2022/04/11 02:31:33;;;;;;;4.65;3.05;;;;;;;;;;6163285;23;20061;-90
2022/04/11 02:33:59;;;;;;;4.45;3.50;;;;;;;;;;6139917;23;20021;-91
2022/04/11 02:36:25;;;;;;;8.70;3.45;;;;;;;;;;6164165;23;20017;-86
2022/04/11 02:38:52;;;;;;;4.05;3.15;;;;;;;;;;6190173;23;20048;-91
2022/04/11 02:41:18;;;;;;;7.70;3.53;;;;;;;;;;6164307;23;20053;-91
2022/04/11 02:43:44;;;;;;;3.90;2.97;;;;;;;;;;6139975;23;20096;-91
2022/04/11 02:46:10;;;;;;;6.68;3.25;;;;;;;;;;6137911;23;20017;-88
2022/04/11 02:48:37;;;;;;;10.68;4.07;;;;;;;;;;6188422;23;20021;-89
2022/04/11 02:51:03;;;;;;;9.23;3.42;;;;;;;;;;6160930;23;20060;-90
2022/04/11 02:53:29;;;;;;;5.80;3.60;;;;;;;;;;6161269;23;20020;-89
2022/04/11 02:55:55;;;;;;;5.45;3.10;;;;;;;;;;6187508;23;20020;-90
2022/04/11 02:58:21;;;;;;;6.97;3.47;;;;;;;;;;6160871;23;20067;-88
2022/04/11 03:00:47;;;;;;;7.57;4.10;;;;;;;;;;6161102;23;20092;-88
2022/04/11 03:03:13;;;;;;;6.43;3.08;;;;;;;;;;6160550;23;20406;-86
2022/04/11 03:05:39;;;;;;;10.25;3.00;;;;;;;;;;6161102;23;20013;-86
2022/04/11 03:08:05;;;;;;;7.13;3.13;;;;;;;;;;6187539;23;20013;-86
2022/04/11 03:10:31;;;;;;;7.88;4.70;;;;;;;;;;6136863;23;20458;-91
2022/04/11 03:12:57;;;;;;;4.25;3.00;;;;;;;;;;6161909;23;20469;-91
2022/04/11 03:15:23;;;;;;;9.50;3.20;;;;;;;;;;6185904;23;20021;-88
2022/04/11 03:17:49;;;;;;;4.43;3.35;;;;;;;;;;6138438;23;20334;-85
2022/04/11 03:20:15;;;;;;;7.38;3.20;;;;;;;;;;6162250;23;20088;-90
2022/04/11 03:22:41;;;;;;;9.65;4.00;;;;;;;;;;6136269;23;20032;-87
2022/04/11 03:25:08;;;;;;;7.15;3.40;;;;;;;;;;6161307;23;20024;-84
2022/04/11 03:27:34;;;;;;;8.63;3.78;;;;;;;;;;6137125;23;20028;-85
2022/04/11 03:30:00;;;;;;;6.45;4.28;;;;;;;;;;6137630;23;20021;-88
2022/04/11 03:32:26;;;;;;;7.65;3.67;;;;;;;;;;6135859;23;20013;-88
2022/04/11 03:34:52;;;;;;;6.72;3.55;;;;;;;;;;6135985;23;20029;-85
2022/04/11 03:37:18;;;;;;;4.90;3.15;;;;;;;;;;6135267;23;20464;-89
2022/04/11 03:39:44;;;;;;;6.25;3.90;;;;;;;;;;6135670;23;20052;-90
2022/04/11 03:42:10;;;;;;;5.22;4.00;;;;;;;;;;6136495;23;20017;-88
2022/04/11 03:44:37;;;;;;;6.00;3.67;;;;;;;;;;6161666;23;20021;-89
2022/04/11 03:47:03;;;;;;;5.15;3.80;;;;;;;;;;6162442;23;20017;-87
2022/04/11 03:49:29;;;;;;;9.55;3.88;;;;;;;;;;6161633;23;20016;-89
2022/04/11 03:51:56;;;;;;;8.75;3.90;;;;;;;;;;6137329;23;20443;-90
2022/04/11 03:54:22;;;;;;;6.22;4.10;;;;;;;;;;6136742;23;20025;-89
2022/04/11 03:56:48;;;;;;;6.65;3.40;;;;;;;;;;6137614;23;20096;-90
2022/04/11 03:59:14;;;;;;;6.30;3.40;;;;;;;;;;6137483;23;20052;-85
2022/04/11 04:01:40;;;;;;;6.50;3.83;;;;;;;;;;6138123;23;20406;-88
2022/04/11 04:04:06;;;;;;;10.20;3.85;;;;;;;;;;6162095;23;20517;-89
2022/04/11 04:06:32;;;;;;;5.68;3.33;;;;;;;;;;6162074;23;20084;-86
2022/04/11 04:08:58;;;;;;;4.22;3.15;;;;;;;;;;6137070;23;20017;-88
2022/04/11 04:11:24;;;;;;;4.65;3.22;;;;;;;;;;6162335;23;20024;-88
2022/04/11 04:13:50;;;;;;;5.88;3.60;;;;;;;;;;6157589;23;20057;-91
2022/04/11 04:16:16;;;;;;;5.47;3.78;;;;;;;;;;6157581;23;20455;-92
2022/04/11 04:18:42;;;;;;;9.27;3.28;;;;;;;;;;6158105;23;20092;-91
2022/04/11 04:21:08;;;;;;;7.97;3.00;;;;;;;;;;6158566;23;20024;-92
2022/04/11 04:23:35;;;;;;;9.35;3.05;;;;;;;;;;6158153;23;20021;-93
2022/04/11 04:26:01;;;;;;;4.93;3.05;;;;;;;;;;6158712;23;20017;-91
2022/04/11 04:28:27;;;;;;;12.43;3.65;;;;;;;;;;6157321;23;20025;-90
2022/04/11 04:30:53;;;;;;;7.72;2.63;;;;;;;;;;6154929;23;20017;-85
2022/04/11 04:33:19;;;;;;;9.95;3.88;;;;;;;;;;6154646;23;20463;-85
2022/04/11 04:35:45;;;;;;;3.53;2.70;;;;;;;;;;6154447;23;20359;-88
2022/04/11 04:38:11;;;;;;;7.53;3.00;;;;;;;;;;6154642;23;20032;-88
2022/04/11 04:40:37;;;;;;;3.13;2.53;;;;;;;;;;6154708;23;20025;-84
2022/04/11 04:43:04;;;;;;;4.95;2.78;;;;;;;;;;6154861;23;20455;-85
2022/04/11 04:45:30;;;;;;;6.30;2.70;;;;;;;;;;6154308;23;20021;-84
2022/04/11 04:47:56;;;;;;;11.95;2.78;;;;;;;;;;6154692;23;20024;-88
2022/04/11 04:50:22;;;;;;;4.13;2.70;;;;;;;;;;6154510;23;20068;-86
2022/04/11 04:52:48;;;;;;;11.15;4.03;;;;;;;;;;6154905;23;20053;-85
2022/04/11 04:55:15;;;;;;;7.70;3.22;;;;;;;;;;6154235;23;20032;-86
2022/04/11 04:57:41;;;;;;;9.05;3.15;;;;;;;;;;6155956;23;20045;-86
2022/04/11 05:00:10;;;;;;;5.95;3.20;;;;;;;;;;6156170;23;20017;-88
2022/04/11 05:02:36;;;;;;;3.40;2.92;;;;;;;;;;6154921;23;20533;-88
2022/04/11 05:05:04;;;;;;;3.05;2.75;;;;;;;;;;6155826;23;20037;-88
2022/04/11 05:07:33;;;;;;;3.03;2.47;;;;;;;;;;6180617;23;20056;-91
2022/04/11 05:09:59;;;;;;;9.13;3.72;;;;;;;;;;6155653;23;20453;-89
2022/04/11 05:12:25;;;;;;;3.05;2.35;;;;;;;;;;6132664;23;20049;-88
2022/04/11 05:14:55;;;;;;;5.57;3.17;;;;;;;;;;6187278;23;20099;-87
2022/04/11 05:17:23;;;;;;;4.55;3.25;;;;;;;;;;6161380;23;20347;-86
2022/04/11 05:19:49;;;;;;;6.25;2.90;;;;;;;;;;6135871;23;20024;-84
2022/04/11 05:22:15;;;;;;;4.88;3.47;;;;;;;;;;6160749;23;20052;-85
2022/04/11 05:24:41;;;;;;;5.03;3.38;;;;;;;;;;6140058;23;20079;-87
2022/04/11 05:27:10;;;;;;;10.68;2.75;;;;;;;;;;6138582;23;20052;-90
2022/04/11 05:29:36;;;;;;;4.43;2.60;;;;;;;;;;6139761;23;20462;-91
2022/04/11 05:32:03;;;;;;;3.97;2.65;;;;;;;;;;6139176;23;20024;-92
2022/04/11 05:34:29;;;;;;;5.43;2.63;;;;;;;;;;6140275;23;20095;-93
2022/04/11 05:36:55;;;;;;;4.88;2.22;;;;;;;;;;6140862;23;20021;-91
2022/04/11 05:39:21;;;;;;;5.45;2.75;;;;;;;;;;6140340;23;20459;-90
2022/04/11 05:41:48;;;;;;;5.70;3.00;;;;;;;;;;6140731;23;20019;-91
2022/04/11 05:44:16;;;;;;;9.05;3.15;;;;;;;;;;6164576;23;20481;-92
2022/04/11 05:46:42;;;;;;;3.70;2.10;;;;;;;;;;6139494;23;20017;-91
2022/04/11 05:49:08;;;;;;;8.25;3.25;;;;;;;;;;6140605;23;20128;-91
2022/04/11 05:51:34;;;;;;;2.90;2.60;;;;;;;;;;6163928;23;20016;-87
2022/04/11 05:54:00;;;;;;;4.40;2.97;;;;;;;;;;6139974;23;20052;-91
2022/04/11 05:56:26;;;;;;;8.65;4.00;;;;;;;;;;6164229;23;20017;-88
2022/04/11 05:58:52;;;;;;;10.02;5.22;;;;;;;;;;6139866;23;20017;-90
2022/04/11 06:01:18;;;;;;;11.05;4.57;;;;;;;;;;6140531;23;20338;-90
2022/04/11 06:03:44;;;;;;;13.40;4.32;;;;;;;;;;6139437;23;20017;-88
2022/04/11 06:06:10;;;;;;;7.53;4.20;;;;;;;;;;6138469;23;20017;-92
2022/04/11 06:08:38;;;;;;;5.47;3.97;;;;;;;;;;6161876;23;20071;-94
2022/04/11 06:11:04;;;;;;;5.65;3.45;;;;;;;;;;6161833;23;20017;-93
2022/04/11 06:13:30;;;;;;;7.00;3.17;;;;;;;;;;6137533;23;20053;-92
2022/04/11 06:15:58;;;;;;;4.97;2.40;;;;;;;;;;6162148;23;20021;-91
2022/04/11 06:18:24;;;;;;;4.13;2.70;;;;;;;;;;6136932;23;20565;-92
2022/04/11 06:20:50;;;;;;;5.43;3.33;;;;;;;;;;6137041;23;20020;-90
2022/04/11 06:23:16;;;;;;;4.25;3.20;;;;;;;;;;6137197;23;20021;-89
2022/04/11 06:25:45;;;;;;;6.78;3.88;;;;;;;;;;6162268;23;20017;-92
2022/04/11 06:28:11;;;;;;;4.20;3.10;;;;;;;;;;6137464;23;20021;-91
2022/04/11 06:30:37;;;;;;;4.10;3.70;;;;;;;;;;6162514;23;20017;-92
2022/04/11 06:33:04;;;;;;;3.65;3.00;;;;;;;;;;6162525;23;20020;-91
2022/04/11 06:35:30;;;;;;;4.50;3.45;;;;;;;;;;6163716;23;20013;-89
2022/04/11 06:37:56;;;;;;;4.95;3.97;;;;;;;;;;6138604;23;20017;-93
2022/04/11 06:40:22;;;;;;;6.75;3.90;;;;;;;;;;6162794;23;20013;-92
2022/04/11 06:42:48;;;;;;;12.25;5.18;;;;;;;;;;6162750;23;20021;-92
2022/04/11 06:45:14;;;;;;;4.72;3.67;;;;;;;;;;6163483;23;20087;-91
2022/04/11 06:47:42;;;;;;;5.30;3.55;;;;;;;;;;6138885;23;20053;-93
2022/04/11 06:50:08;;;;;;;6.28;3.63;;;;;;;;;;6137931;23;20079;-93
2022/04/11 06:52:34;;;;;;;5.32;3.45;;;;;;;;;;6162877;23;20021;-93
2022/04/11 06:55:00;;;;;;;9.32;3.78;;;;;;;;;;6138303;23;20371;-94
2022/04/11 06:57:26;;;;;;;6.20;3.72;;;;;;;;;;6138173;23;20063;-93
2022/04/11 06:59:52;;;;;;;4.72;3.40;;;;;;;;;;6137557;23;20013;-94
2022/04/11 07:02:19;;;;;;;4.00;3.40;;;;;;;;;;6139343;23;20028;-93
2022/04/11 07:04:45;;;;;;;6.30;3.50;;;;;;;;;;6164095;23;20013;-92
2022/04/11 07:07:11;;;;;;;5.90;3.70;;;;;;;;;;6164565;23;20025;-91
2022/04/11 07:09:38;;;;;;;6.40;3.80;;;;;;;;;;6163235;23;20021;-90
2022/04/11 07:12:04;;;;;;;4.38;3.35;;;;;;;;;;6139627;23;20017;-92
2022/04/11 07:14:30;;;;;;;7.47;3.20;;;;;;;;;;6140180;23;20056;-91
2022/04/11 07:16:57;;;;;;;4.93;2.85;;;;;;;;;;6163987;23;20039;-94
2022/04/11 07:19:23;;;;;;;6.10;2.90;;;;;;;;;;6139276;23;20032;-92
2022/04/11 07:21:49;;;;;;;4.15;3.10;;;;;;;;;;6163989;23;20028;-93
2022/04/11 07:24:15;;;;;;;6.75;2.95;;;;;;;;;;6139407;23;20066;-94
2022/04/11 07:26:41;;;;;;;6.47;2.58;;;;;;;;;;6164018;23;20020;-90
2022/04/11 07:29:08;;;;;;;4.13;2.85;;;;;;;;;;6190091;23;20021;-93
2022/04/11 07:31:34;;;;;;;5.28;2.80;;;;;;;;;;6164165;23;20024;-94
2022/04/11 07:34:01;;;;;;;5.90;2.45;;;;;;;;;;6139136;23;20021;-93
2022/04/11 07:36:28;;;;;;;4.38;2.72;;;;;;;;;;6138831;23;20024;-89
2022/04/11 07:38:55;;;;;;;3.80;2.50;;;;;;;;;;6163682;23;20071;-92
2022/04/11 07:41:21;;;;;;;4.38;2.40;;;;;;;;;;6139372;23;20017;-93
2022/04/11 07:43:48;;;;;;;2.95;2.25;;;;;;;;;;6163570;23;20021;-94
2022/04/11 07:46:14;;;;;;;3.15;2.55;;;;;;;;;;6139496;23;20017;-92
2022/04/11 07:48:41;;;;;;;3.78;2.22;;;;;;;;;;6139692;23;20024;-92
2022/04/11 07:51:09;;;;;;;4.65;2.63;;;;;;;;;;6139860;23;20020;-91
2022/04/11 07:53:35;;;;;;;8.80;2.40;;;;;;;;;;6164346;23;20390;-93
2022/04/11 07:56:01;;;;;;;4.78;2.45;;;;;;;;;;6140574;23;20021;-94
2022/04/11 07:58:28;;;;;;;5.85;2.40;;;;;;;;;;6166750;23;20036;-95
2022/04/11 08:00:54;;;;;;;6.43;3.30;;;;;;;;;;6140576;23;20021;-93
2022/04/11 08:03:20;;;;;;;3.58;3.20;;;;;;;;;;6140634;23;20052;-95
2022/04/11 08:05:46;;;;;;;4.57;2.28;;;;;;;;;;6140738;23;20017;-92
2022/04/11 08:08:13;;;;;;;5.88;2.20;;;;;;;;;;6141228;23;20013;-91
2022/04/11 08:10:41;;;;;;;3.78;2.40;;;;;;;;;;6165807;23;20103;-92
2022/04/11 08:13:07;;;;;;;4.95;2.47;;;;;;;;;;6138579;23;20065;-93
2022/04/11 08:15:33;;;;;;;5.13;2.00;;;;;;;;;;6163362;23;20021;-89
2022/04/11 08:18:02;;;;;;;7.90;2.60;;;;;;;;;;6189645;23;20084;-93
2022/04/11 08:20:29;;;;;;;3.53;2.03;;;;;;;;;;6163809;23;20021;-94
2022/04/11 08:22:55;;;;;;;4.30;2.33;;;;;;;;;;6138510;23;20335;-91
2022/04/11 08:25:21;;;;;;;7.03;2.00;;;;;;;;;;6162714;23;20552;-90
2022/04/11 08:27:47;;;;;;;4.53;2.20;;;;;;;;;;6161963;23;20021;-94
2022/04/11 08:30:14;;;;;;;4.55;2.42;;;;;;;;;;6137662;23;20109;-95
2022/04/11 08:32:47;;;;;;;3.92;2.15;;;;;;;;;;6137444;23;20068;-88
2022/04/11 08:35:16;;;;;;;5.27;1.97;;;;;;;;;;6162580;23;20075;-90
2022/04/11 08:37:43;;;;;;;4.45;2.15;;;;;;;;;;6137762;23;20009;-93
2022/04/11 08:40:12;;;;;;;2.38;1.90;;;;;;;;;;6138058;23;20455;-92
2022/04/11 08:42:39;;;;;;;3.47;1.63;;;;;;;;;;6137979;23;20408;-91
2022/04/11 08:45:07;;;;;;;2.70;1.70;;;;;;;;;;6162415;23;20027;-90
2022/04/11 08:47:33;;;;;;;4.93;1.55;;;;;;;;;;6137592;23;20021;-90
2022/04/11 08:50:00;;;;;;;3.55;2.20;;;;;;;;;;6136939;23;20528;-86
2022/04/11 08:52:27;;;;;;;4.35;1.92;;;;;;;;;;6136071;23;20013;-87
2022/04/11 08:54:54;;;;;;;2.55;2.20;;;;;;;;;;6136489;23;20025;-87
2022/04/11 08:57:22;;;;;;;6.15;2.08;;;;;;;;;;6136734;23;20020;-88
2022/04/11 08:59:49;;;;;;;3.67;2.28;;;;;;;;;;6136630;23;20327;-87
2022/04/11 09:02:18;;;;;;;2.83;1.80;;;;;;;;;;6161727;23;20068;-87
2022/04/11 09:04:55;;;;;;;3.47;2.10;;;;;;;;;;6137319;23;20024;-88
2022/04/11 09:07:22;;;;;;;4.45;2.03;;;;;;;;;;6137999;23;20120;-86
2022/04/11 09:09:48;;;;;;;6.15;2.00;;;;;;;;;;6139748;23;20021;-87
2022/04/11 09:12:15;;;;;;;4.50;1.60;;;;;;;;;;6139688;23;20025;-87
2022/04/11 09:14:54;;;;;;;7.45;1.85;;;;;;;;;;6137231;23;20021;-87
2022/04/11 09:17:24;;;;;;;2.03;1.52;;;;;;;;;;6136683;23;20351;-86
2022/04/11 09:20:06;;;;;;;2.47;1.73;;;;;;;;;;6136119;23;20021;-87
2022/04/11 09:22:35;;;;;;;5.85;1.50;;;;;;;;;;6137009;23;20017;-87
2022/04/11 09:25:21;;;;;;;4.78;2.08;;;;;;;;;;6136827;23;20031;-86
2022/04/11 09:27:48;;;;;;;4.10;1.90;;;;;;;;;;6136089;23;20013;-86
2022/04/11 09:30:18;;;;;;;1.92;1.50;;;;;;;;;;6135948;23;20017;-87
2022/04/11 09:32:51;;;;;;;4.28;1.95;;;;;;;;;;6160243;23;20023;-87
2022/04/11 09:35:21;;;;;;;4.57;1.73;;;;;;;;;;6135410;23;20017;-87
2022/04/11 09:37:47;;;;;;;5.38;1.95;;;;;;;;;;6136301;23;20660;-87
2022/04/11 09:40:21;;;;;;;1.48;1.15;;;;;;;;;;6160788;23;20052;-87
2022/04/11 09:42:57;;;;;;;1.95;1.65;;;;;;;;;;6160860;23;20083;-87
2022/04/11 09:45:23;;;;;;;1.80;1.45;;;;;;;;;;6136092;23;20049;-87
2022/04/11 09:48:10;;;;;;;3.40;1.42;;;;;;;;;;6136698;23;20016;-87
2022/04/11 09:50:36;;;;;;;1.83;1.48;;;;;;;;;;6160660;23;20378;-87
2022/04/11 09:53:09;;;;;;;6.07;1.55;;;;;;;;;;6135906;23;20351;-87
2022/04/11 09:55:36;;;;;;;1.63;1.40;;;;;;;;;;6185903;23;20071;-87
2022/04/11 09:58:03;;;;;;;4.85;1.60;;;;;;;;;;6133570;23;20052;-87
2022/04/11 10:00:29;;;;;;;3.55;1.85;;;;;;;;;;6135820;23;20017;-87
2022/04/11 10:03:00;;;;;;;3.67;2.30;;;;;;;;;;6139171;23;20021;-86
2022/04/11 10:05:27;;;;;;;2.92;2.15;;;;;;;;;;6150090;23;20016;-88
2022/04/11 10:07:57;;;;;;;2.72;2.28;;;;;;;;;;6142981;23;20100;-86
2022/04/11 10:10:23;;;;;;;3.83;2.05;;;;;;;;;;6150258;23;20073;-91
2022/04/11 10:12:53;;;;;;;6.22;1.95;;;;;;;;;;6182395;23;20020;-87
2022/04/11 10:15:22;;;;;;;3.72;2.03;;;;;;;;;;6133721;23;20047;-87
2022/04/11 10:18:12;;;;;;;2.33;1.95;;;;;;;;;;6207197;23;20017;-86
2022/04/11 10:20:56;;;;;;;3.38;1.70;;;;;;;;;;6119681;23;20018;-86
2022/04/11 10:23:35;;;;;;;3.85;1.80;;;;;;;;;;6093823;23;20022;-86
2022/04/11 10:26:27;;;;;;;5.38;1.95;;;;;;;;;;6147965;23;20097;-91
2022/04/11 10:29:02;;;;;;;1.88;1.77;;;;;;;;;;6159523;23;20044;-87
2022/04/11 10:31:46;;;;;;;3.17;1.70;;;;;;;;;;6179720;23;20044;-87
2022/04/11 10:34:28;;;;;;;7.32;1.80;;;;;;;;;;6179831;23;20022;-89
2022/04/11 10:37:04;;;;;;;5.45;2.50;;;;;;;;;;6126866;23;20018;-87
2022/04/11 10:39:34;;;;;;;2.28;1.70;;;;;;;;;;6189364;23;20032;-87
2022/04/11 10:42:06;;;;;;;2.33;1.38;;;;;;;;;;6184871;23;20025;-87
2022/04/11 10:44:57;;;;;;;3.17;1.98;;;;;;;;;;6181554;23;20017;-86
2022/04/11 10:47:51;;;;;;;6.00;2.72;;;;;;;;;;6174093;23;20021;-87
2022/04/11 10:50:22;;;;;;;3.60;2.40;;;;;;;;;;6126880;23;20414;-90
2022/04/11 10:52:54;;;;;;;3.90;2.53;;;;;;;;;;6152732;23;20073;-87
2022/04/11 10:55:25;;;;;;;1.83;1.65;;;;;;;;;;6128720;23;20021;-90
2022/04/11 10:57:57;;;;;;;4.10;2.65;;;;;;;;;;6152114;23;20021;-94
2022/04/11 11:00:27;;;;;;;5.75;2.22;;;;;;;;;;6144450;23;20017;-90
2022/04/11 11:02:53;;;;;;;5.78;2.28;;;;;;;;;;6134158;23;20423;-88
2022/04/11 11:05:51;;;;;;;4.00;2.20;;;11.60;99.90;;;;;;6177082;23;20017;-92
2022/04/11 11:08:23;;;;;;;4.43;2.55;;;;;;;;;;6056045;23;20026;-96
2022/04/11 11:11:20;;;;;;;5.00;2.50;;;;;;;;;;6060344;23;20039;-92
2022/04/11 11:13:50;;;;;;;3.58;2.60;;;;;;;;;;6038521;23;20019;-91
2022/04/11 11:16:22;;;;;;;6.30;2.75;;;;;;;;;;6015250;23;20030;-89
2022/04/11 11:18:48;;;;;;;5.30;2.50;;;;;;;;;;6014391;23;20074;-87
2022/04/11 11:21:18;;;;;;;4.57;2.40;;;;;;;;;;6037098;23;20043;-89
2022/04/11 11:24:26;;;;;;;3.20;2.33;;;;;;;;;;6062415;23;20013;-90
2022/04/11 11:26:57;;;;;;;3.30;2.50;;;;;;;;;;5948566;24;20023;-87
2022/04/11 11:29:47;;;;;;;5.00;2.20;;;;;;;;;;5971734;24;20031;-86
2022/04/11 11:32:24;;;;;;;5.63;2.90;;;;;;;;;;5971746;24;20028;-85
2022/04/11 11:34:56;;;;;;;3.13;2.83;;;;;;;;;;5970686;24;20032;-86
2022/04/11 11:37:29;;;;;;;6.80;2.70;;;;;;;;;;5968120;24;20390;-86
2022/04/11 11:40:00;;;;;;;10.30;3.22;;;;;;;;;;5947935;24;20038;-87
2022/04/11 11:42:26;;;;;;;5.63;3.28;;;;;;;;;;5976466;24;20056;-86
2022/04/11 11:44:54;;;;;;;4.63;2.88;;;;;;;;;;5969609;23;20053;-86
2022/04/11 11:47:38;;;;;;;7.07;3.30;;;;;;;;;;6084404;23;20042;-85
2022/04/11 11:50:08;;;;;;;6.40;2.88;;;;;;;;;;6071345;23;20022;-86
2022/04/11 11:52:41;;;;;;;3.55;2.65;;;;;;;;;;6176665;23;20021;-86
2022/04/11 11:58:05;;;;;;;4.05;2.78;;;;;;;;;;6200853;23;20031;-86
2022/04/11 12:00:35;;;;;;;5.00;2.75;;;;;;;;;;6144219;23;20025;-86
2022/04/11 12:08:17;;;;;;;5.15;2.95;;;;;;;;;;6198582;23;20024;-86
2022/04/11 12:10:47;;;;;;;6.05;3.38;;;;;;;;;;6150911;23;20021;-86
2022/04/11 12:13:26;;;;;;;3.08;2.75;;;;;;;;;;6171475;23;20051;-89
2022/04/11 12:15:53;;;;;;;4.18;3.10;;;;;;;;;;6171263;23;20017;-93
2022/04/11 12:18:20;;;;;;;4.57;3.17;;;;;;;;;;6147194;23;20092;-89
2022/04/11 12:20:47;;;;;;;4.82;2.53;;;;;;;;;;6166992;23;20028;-90
2022/04/11 12:23:19;;;;;;;5.78;3.60;;;12.80;99.90;;;;;;6193653;23;20067;-88
2022/04/11 12:25:54;;;;;;;5.10;2.80;;;;;;;;;;6160100;23;20025;-89
2022/04/11 12:28:22;;;;;;;4.88;3.22;;;;;;;;;;6136849;23;20032;-87
2022/04/11 12:31:03;;;;;;;4.85;2.85;;;;;;;;;;6138003;23;20084;-88
2022/04/11 12:33:42;;;;;;;3.60;2.60;;;;;;;;;;6163007;23;20032;-89
2022/04/11 12:36:55;;;;;;;3.17;2.88;;;13.10;99.90;;;;;;6162887;23;20073;-87
2022/04/11 12:39:25;;;;;;;7.05;3.67;;;;;;;;;;6073446;23;20098;-87
2022/04/11 12:41:57;;;;;;;7.40;2.92;;;;;;;;;;6048935;23;20039;-85
2022/04/11 12:44:38;;;;;;;5.55;3.35;;;;;;;;;;6045717;23;20019;-86
2022/04/11 12:47:09;;;;;;;4.82;2.40;;;;;;;;;;6047493;23;20006;-88
2022/04/11 12:49:44;;;;;;;2.70;2.50;;;;;;;;;;6070633;23;20474;-85
2022/04/11 12:52:11;;;;;;;3.97;2.65;;;;;;;;;;6022880;23;20018;-85
2022/04/11 12:54:41;;;;;;;7.00;2.67;;;;;;;;;;6046266;23;20050;-85
2022/04/11 12:57:10;;;;;;;4.88;3.13;;;13.60;99.90;;;;;;6020989;23;20508;-85
2022/04/11 12:59:37;;;;;;;3.22;2.90;;;;;;;;;;6022392;23;20097;-85
2022/04/11 13:02:03;;;;;;;4.30;2.83;;;;;;;;;;6043118;23;20147;-85
2022/04/11 13:04:34;;;;;;;8.30;3.10;;;;;;;;;;6068960;23;20362;-85
2022/04/11 13:07:00;;;;;;;3.75;2.83;;;;;;;;;;6068491;23;20514;-85
2022/04/11 13:09:26;;;;;;;4.65;3.00;;;;;;;;;;6019616;23;20018;-85
2022/04/11 13:11:52;;;;;;;5.28;3.15;;;;;;;;;;6067892;23;20049;-87
2022/04/11 13:14:20;;;;;;;5.55;2.90;;;;;;;;;;6046986;23;20023;-86
2022/04/11 13:19:31;;;;;;;6.05;3.17;;;;;;;;;;6157792;23;20124;-85
2022/04/11 13:21:58;;;;;;;2.53;2.33;;;;;;;;;;6184545;23;20025;-89
2022/04/11 13:24:24;;;;;;;6.40;3.17;;;;;;;;;;6155818;23;20048;-85
2022/04/11 13:26:50;;;;;;;4.00;2.90;;;;;;;;;;6157729;23;20543;-86
2022/04/11 13:29:16;;;;;;;5.10;2.50;;;;;;;;;;6158117;23;20034;-88
2022/04/11 13:31:43;;;;;;;4.72;2.95;;;;;;;;;;6158409;23;20020;-84
2022/04/11 13:34:09;;;;;;;3.70;2.67;;;;;;;;;;6159143;23;20021;-85
2022/04/11 13:36:35;;;;;;;3.72;2.95;;;;;;;;;;6160531;23;20471;-84
2022/04/11 13:39:02;;;;;;;4.10;2.63;;;;;;;;;;6160383;23;20084;-87
2022/04/11 13:41:28;;;;;;;3.95;2.53;;;;;;;;;;6160303;23;20102;-84
2022/04/11 13:43:54;;;;;;;6.18;2.85;;;;;;;;;;6159497;23;20076;-84
2022/04/11 13:46:20;;;;;;;5.63;3.75;;;;;;;;;;6159021;23;20022;-84
2022/04/11 13:48:46;;;;;;;5.38;2.78;;;;;;;;;;6158495;23;20024;-84
2022/04/11 13:51:12;;;;;;;4.93;3.00;;;;;;;;;;6157299;23;20040;-84
2022/04/11 13:53:38;;;;;;;5.80;2.67;;;;;;;;;;6159856;23;20024;-85
2022/04/11 13:56:06;;;;;;;3.90;2.40;;;;;;;;;;6159851;23;20025;-89
2022/04/11 13:58:32;;;;;;;4.03;2.80;;;;;;;;;;6158850;23;20021;-84
2022/04/11 14:00:58;;;;;;;3.47;2.60;;;;;;;;;;6160059;23;20040;-84
2022/04/11 14:03:25;;;;;;;4.53;3.55;;;;;;;;;;6131722;23;20021;-87
2022/04/11 14:05:51;;;;;;;4.32;2.78;;;;;;;;;;6155807;23;20017;-84
2022/04/11 14:08:17;;;;;;;4.80;2.65;;;;;;;;;;6153631;23;20466;-85
2022/04/11 14:10:44;;;;;;;6.63;3.28;;;;;;;;;;6153885;23;20018;-85
2022/04/11 14:13:13;;;;;;;3.92;3.33;;;;;;;;;;6154819;23;20044;-85
2022/04/11 14:15:39;;;;;;;5.93;3.30;;;;;;;;;;6156670;23;20025;-88
2022/04/11 14:18:05;;;;;;;4.57;2.88;;;;;;;;;;6156773;23;20017;-88
2022/04/11 14:20:34;;;;;;;3.95;2.70;;;14.80;99.90;;;;;;6154869;23;20132;-85
2022/04/11 14:23:00;;;;;;;4.15;2.60;;;;;;;;;;6155932;23;20021;-85
2022/04/11 14:25:28;;;;;;;3.85;2.60;;;;;;;;;;6153796;23;20021;-84
2022/04/11 14:27:57;;;;;;;4.28;2.70;;;15.10;99.90;;;;;;6154954;23;20366;-86
2022/04/11 14:30:23;;;;;;;3.47;2.90;;;;;;;;;;6155059;23;20398;-85
2022/04/11 14:32:49;;;;;;;4.63;2.58;;;;;;;;;;6154986;23;20451;-87
2022/04/11 14:35:15;;;;;;;7.72;2.45;;;;;;;;;;6155009;23;20072;-87
2022/04/11 14:37:41;;;;;;;5.07;2.58;;;;;;;;;;6158212;23;20017;-89
2022/04/11 14:40:10;;;;;;;4.47;3.38;;;;;;;;;;6157352;23;20096;-93
2022/04/11 14:42:36;;;;;;;4.20;3.38;;;;;;;;;;6157142;23;20029;-94
2022/04/11 14:45:03;;;;;;;4.57;3.33;;;;;;;;;;6154777;23;20021;-85
2022/04/11 14:47:29;;;;;;;6.63;3.65;;;;;;;;;;6156243;23;20478;-85
2022/04/11 14:49:55;;;;;;;4.65;2.78;;;;;;;;;;6155249;23;20073;-88
2022/04/11 14:52:21;;;;;;;3.58;2.72;;;;;;;;;;6153498;23;20904;-86
2022/04/11 14:54:47;;;;;;;16.40;5.10;;;;;;;;;;6156121;23;20060;-89
2022/04/11 14:57:13;;;;;;;3.50;3.03;;;;;;;;;;6155515;23;20017;-88